createdAt,value
2023-02-08T00:00:02.422Z,0.90
2023-02-08T00:05:05.668Z,2.27
2023-02-08T00:10:10.486Z,6.67
2023-02-08T00:15:13.605Z,5.28
2023-02-08T00:20:16.600Z,3.28
2023-02-08T00:25:19.400Z,2.07
2023-02-08T00:30:22.220Z,1.35
2023-02-08T00:35:24.947Z,4.45
2023-02-08T00:40:28.085Z,6.46
2023-02-08T00:45:30.926Z,3.98
2023-02-08T00:50:33.702Z,2.42
2023-02-08T00:55:36.400Z,1.38
2023-02-08T01:00:39.430Z,2.47
2023-02-08T01:05:42.338Z,6.39
2023-02-08T01:10:45.115Z,4.29
2023-02-08T01:15:48.107Z,2.50
2023-02-08T01:20:50.921Z,1.55
2023-02-08T01:25:53.622Z,0.85
2023-02-08T01:30:56.587Z,2.28
2023-02-08T01:35:59.424Z,5.67
2023-02-08T01:41:03.246Z,3.48
2023-02-08T01:46:06.028Z,1.92
2023-02-08T01:51:13.855Z,1.04
2023-02-08T01:56:39.203Z,2.36
2023-02-08T02:01:43.633Z,6.59
2023-02-08T02:06:51.715Z,4.81
2023-02-08T02:11:55.836Z,2.75
2023-02-08T02:17:00.535Z,1.59
2023-02-08T02:22:25.313Z,2.51
2023-02-08T02:27:59.139Z,6.28
2023-02-08T02:33:02.091Z,3.79
2023-02-08T02:38:21.082Z,2.27
2023-02-08T02:43:46.465Z,1.30
2023-02-08T02:48:59.047Z,0.62
2023-02-08T02:54:11.548Z,1.55
2023-02-08T02:59:16.895Z,5.85
2023-02-08T03:04:39.560Z,4.55
2023-02-08T03:10:10.355Z,2.52
2023-02-08T03:16:07.940Z,1.43
2023-02-08T03:21:26.920Z,0.73
2023-02-08T03:26:37.100Z,2.65
2023-02-08T03:31:50.618Z,5.94
2023-02-08T03:36:56.109Z,3.65
2023-02-08T03:42:01.867Z,2.00
2023-02-08T03:47:14.699Z,1.08
2023-02-08T03:52:17.727Z,1.87
2023-02-08T03:57:28.716Z,5.59
2023-02-08T04:02:34.866Z,4.07
2023-02-08T04:07:37.675Z,2.21
2023-02-08T04:12:40.492Z,1.29
2023-02-08T04:17:43.813Z,4.54
2023-02-08T04:22:46.549Z,5.67
2023-02-08T04:27:49.297Z,3.14
2023-02-08T04:32:52.030Z,1.82
2023-02-08T04:37:54.914Z,1.53
2023-02-08T04:42:57.714Z,5.19
2023-02-08T04:48:04.283Z,5.40
2023-02-08T04:53:07.219Z,3.11
2023-02-08T04:58:10.116Z,1.80
2023-02-08T05:03:13.526Z,0.96
2023-02-08T05:08:16.226Z,0.54
2023-02-08T05:13:19.022Z,3.97
2023-02-08T05:18:21.740Z,5.98
2023-02-08T05:23:25.637Z,3.47
2023-02-08T05:28:28.340Z,1.88
2023-02-08T05:33:31.067Z,0.93
2023-02-08T05:38:34.013Z,0.35
2023-02-08T05:43:37.073Z,3.15
2023-02-08T05:48:39.850Z,5.59
2023-02-08T05:53:43.695Z,3.19
2023-02-08T05:58:46.404Z,1.80
2023-02-08T06:03:49.218Z,1.00
2023-02-08T06:08:52.022Z,0.43
2023-02-08T06:13:54.782Z,0.36
2023-02-08T06:18:57.852Z,4.32
2023-02-08T06:24:00.702Z,5.57
2023-02-08T06:29:03.577Z,3.29
2023-02-08T06:34:06.300Z,1.85
2023-02-08T06:39:09.097Z,0.97
2023-02-08T06:44:12.133Z,3.59
2023-02-08T06:49:15.521Z,5.50
2023-02-08T06:54:18.505Z,3.17
2023-02-08T06:59:21.388Z,1.85
2023-02-08T07:04:24.112Z,1.32
2023-02-08T07:09:26.892Z,4.72
2023-02-08T07:14:31.889Z,4.77
2023-02-08T07:19:37.272Z,2.74
2023-02-08T07:24:41.662Z,1.57
2023-02-08T07:29:44.470Z,2.64
2023-02-08T07:34:47.371Z,5.47
2023-02-08T07:39:52.374Z,3.28
2023-02-08T07:44:56.083Z,1.80
2023-02-08T07:49:59.104Z,0.97
2023-02-08T07:55:01.906Z,0.70
2023-02-08T08:00:05.055Z,4.49
2023-02-08T08:05:09.051Z,4.19
2023-02-08T08:10:11.962Z,2.20
2023-02-08T08:15:14.792Z,1.42
2023-02-08T08:20:17.762Z,4.35
2023-02-08T08:25:20.544Z,3.78
2023-02-08T08:30:27.361Z,2.00
2023-02-08T08:35:34.209Z,1.80
2023-02-08T08:40:37.358Z,4.10
2023-02-08T08:45:40.074Z,2.38
2023-02-08T08:50:43.332Z,1.26
2023-02-08T08:55:46.365Z,0.77
2023-02-08T09:00:49.483Z,0.52
2023-02-08T09:05:52.730Z,0.39
2023-02-08T09:10:55.402Z,0.23
2023-02-08T09:15:58.251Z,0.12
2023-02-08T09:21:16.734Z,2.11
2023-02-08T09:26:20.323Z,5.51
2023-02-08T09:31:29.821Z,3.35
2023-02-08T09:36:35.585Z,2.18
2023-02-08T09:41:56.919Z,2.74
2023-02-08T09:47:18.201Z,5.24
2023-02-08T09:52:27.700Z,3.48
2023-02-08T09:57:35.633Z,2.37
2023-02-08T10:02:41.543Z,2.80
2023-02-08T10:07:44.964Z,4.83
2023-02-08T10:13:02.841Z,3.33
2023-02-08T10:18:13.859Z,2.32
2023-02-08T10:23:49.736Z,1.76
2023-02-08T10:29:17.260Z,1.94
2023-02-08T10:34:30.775Z,5.82
2023-02-08T10:39:37.184Z,4.52
2023-02-08T10:44:49.626Z,3.09
2023-02-08T10:50:21.489Z,2.31
2023-02-08T10:55:25.101Z,4.22
2023-02-08T11:00:32.772Z,5.56
2023-02-08T11:05:38.499Z,3.82
2023-02-08T11:10:55.860Z,2.90
2023-02-08T11:16:06.763Z,3.97
2023-02-08T11:21:27.237Z,6.48
2023-02-08T11:26:36.148Z,4.50
2023-02-08T11:31:56.762Z,3.38
2023-02-08T11:37:04.172Z,2.73
2023-02-08T11:42:08.159Z,2.38
2023-02-08T11:47:16.704Z,4.88
2023-02-08T11:52:26.561Z,6.48
2023-02-08T11:57:29.375Z,4.53
2023-02-08T12:02:38.976Z,3.49
2023-02-08T12:08:00.370Z,2.95
2023-02-08T12:13:20.594Z,2.48
2023-02-08T12:19:11.348Z,2.17
2023-02-08T12:24:25.878Z,1.91
2023-02-08T12:29:56.243Z,1.79
2023-02-08T12:35:41.718Z,1.68
2023-02-08T12:41:18.794Z,1.63
2023-02-08T12:47:02.368Z,1.62
2023-02-08T12:52:18.326Z,4.08
2023-02-08T12:57:24.998Z,6.35
2023-02-08T13:02:44.798Z,4.35
2023-02-08T13:07:51.639Z,3.27
2023-02-08T13:12:58.969Z,2.79
2023-02-08T13:18:23.650Z,2.97
2023-02-08T13:23:32.280Z,7.05
2023-02-08T13:28:36.369Z,5.62
2023-02-08T13:34:00.922Z,4.14
2023-02-08T13:39:25.730Z,3.25
2023-02-08T13:44:38.846Z,2.65
2023-02-08T13:49:54.067Z,2.23
2023-02-08T13:55:30.730Z,1.94
2023-02-08T14:00:35.873Z,1.71
2023-02-08T14:05:57.919Z,1.50
2023-02-08T14:11:27.854Z,3.25
2023-02-08T14:16:38.597Z,6.09
2023-02-08T14:21:50.402Z,3.85
2023-02-08T14:27:21.301Z,2.57
2023-02-08T14:32:26.472Z,1.80
2023-02-08T14:37:32.785Z,1.31
2023-02-08T14:42:53.776Z,3.11
2023-02-08T14:48:21.567Z,5.65
2023-02-08T14:53:29.373Z,3.48
2023-02-08T14:58:40.087Z,2.33
2023-02-08T15:03:44.217Z,1.57
2023-02-08T15:08:52.670Z,0.99
2023-02-08T15:14:00.642Z,0.51
2023-02-08T15:19:07.486Z,0.11
2023-02-08T15:24:19.886Z,-0.22
2023-02-08T15:29:39.082Z,-0.52
2023-02-08T15:34:50.669Z,0.91
2023-02-08T15:39:58.324Z,5.14
2023-02-08T15:45:02.780Z,3.56
2023-02-08T15:50:16.687Z,1.80
2023-02-08T15:55:19.493Z,0.74
2023-02-08T16:00:25.971Z,-0.01
2023-02-08T16:05:31.747Z,-0.62
2023-02-08T16:10:41.415Z,-1.12
2023-02-08T16:15:49.377Z,-1.54
2023-02-08T16:20:58.440Z,-1.89
2023-02-08T16:26:28.563Z,-0.29
2023-02-08T16:31:35.419Z,4.39
2023-02-08T16:36:44.368Z,2.53
2023-02-08T16:41:55.577Z,0.65
2023-02-08T16:47:25.383Z,-0.42
2023-02-08T16:52:28.201Z,-1.21
2023-02-08T16:57:42.879Z,0.01
2023-02-08T17:02:46.427Z,4.04
2023-02-08T17:07:50.148Z,2.06
2023-02-08T17:13:01.813Z,0.24
2023-02-08T17:18:16.167Z,-0.86
2023-02-08T17:23:18.933Z,-1.59
2023-02-08T17:28:22.762Z,-2.19
2023-02-08T17:33:26.406Z,-2.67
2023-02-08T17:38:29.112Z,0.02
2023-02-08T17:43:32.068Z,3.69
2023-02-08T17:48:34.878Z,1.62
2023-02-08T17:53:42.569Z,-0.22
2023-02-08T17:58:45.691Z,-1.25
2023-02-08T18:03:50.595Z,-1.98
2023-02-08T18:08:56.210Z,-0.74
2023-02-08T18:13:59.399Z,3.44
2023-02-08T18:19:02.205Z,1.77
2023-02-08T18:24:06.573Z,-0.21
2023-02-08T18:29:10.295Z,-1.29
2023-02-08T18:34:13.029Z,-1.87
2023-02-08T18:39:22.997Z,1.94
2023-02-08T18:44:25.752Z,2.82
2023-02-08T18:49:28.856Z,0.33
2023-02-08T18:54:31.640Z,-1.03
2023-02-08T18:59:35.870Z,-1.92
2023-02-08T19:04:38.946Z,-0.48
2023-02-08T19:09:43.843Z,3.53
2023-02-08T19:14:50.792Z,1.70
2023-02-08T19:19:53.526Z,-0.31
2023-02-08T19:24:56.314Z,-1.46
2023-02-08T19:29:59.084Z,-2.24
2023-02-08T19:35:01.852Z,0.80
2023-02-08T19:40:05.643Z,2.73
2023-02-08T19:45:09.644Z,0.27
2023-02-08T19:50:12.397Z,-1.26
2023-02-08T19:55:15.189Z,-2.21
2023-02-08T20:00:23.710Z,-0.83
2023-02-08T20:05:26.999Z,2.99
2023-02-08T20:10:29.721Z,0.77
2023-02-08T20:15:34.834Z,-1.11
2023-02-08T20:20:38.348Z,-2.20
2023-02-08T20:25:41.213Z,-0.69
2023-02-08T20:30:44.023Z,3.02
2023-02-08T20:35:46.925Z,0.63
2023-02-08T20:40:49.649Z,-1.18
2023-02-08T20:45:52.450Z,-2.25
2023-02-08T20:50:55.209Z,-3.06
2023-02-08T20:55:58.021Z,-1.55
2023-02-08T21:01:01.566Z,2.70
2023-02-08T21:06:15.102Z,0.58
2023-02-08T21:11:20.044Z,-1.42
2023-02-08T21:16:23.571Z,-2.52
2023-02-08T21:21:28.165Z,-1.30
2023-02-08T21:26:31.009Z,2.71
2023-02-08T21:31:36.630Z,0.46
2023-02-08T21:36:39.485Z,-1.43
2023-02-08T21:41:42.273Z,-2.51
2023-02-08T21:46:44.998Z,-1.66
2023-02-08T21:52:06.306Z,2.50
2023-02-08T21:57:12.907Z,0.52
2023-02-08T22:02:24.625Z,-1.48
2023-02-08T22:07:28.461Z,-2.63
2023-02-08T22:12:31.280Z,-3.43
2023-02-08T22:17:34.137Z,-2.21
2023-02-08T22:22:37.245Z,2.41
2023-02-08T22:27:41.103Z,0.60
2023-02-08T22:32:46.125Z,-1.48
2023-02-08T22:37:48.927Z,-2.62
2023-02-08T22:42:51.677Z,-3.45
2023-02-08T22:47:54.416Z,-4.06
2023-02-08T22:52:57.138Z,-2.54
2023-02-08T22:57:59.874Z,2.29
2023-02-08T23:03:02.683Z,0.78
2023-02-08T23:08:05.558Z,-1.46
2023-02-08T23:13:09.645Z,-2.67
2023-02-08T23:18:12.769Z,-3.48
2023-02-08T23:23:15.571Z,-1.84
2023-02-08T23:28:18.322Z,2.32
2023-02-08T23:33:21.096Z,0.50
2023-02-08T23:38:24.117Z,-1.46
2023-02-08T23:43:26.736Z,-2.37
2023-02-08T23:48:29.496Z,-0.99
2023-02-08T23:53:33.506Z,3.27
2023-02-08T23:58:37.061Z,2.48
